Latest Weather Observations for Point Fawcett

IDD60801

Issued at 9:51 pm CST Monday 6 February 2023 (issued every 10 minutes, with the page automatically refreshed every 10 minutes)

About weather observations | Map of weather stations | Latest weather observations for NT | Other Formats
Station Details ID: 200731 Name: POINT FAWCETT Lat: -11.76 Lon: 130.03 Height: 6.5 m
Data from the previous 72 hours. | See also: Recent months at Point Fawcett
Date/Time
CST
Temp
°C
App
Temp
°C
Dew
Point
°C
Rel
Hum
%
Delta-T
°C
Wind Press
QNH
hPa
Press
MSL
hPa
Rain since
9am
mm
Dir  Spd
km/h
Gust
km/h
Spd
kts
Gust
kts
06/09:30pm 26.4 31.2 24.2 88 1.5 W 6 9 3 5 1007.7 1007.6 0.2
06/09:00pm 26.6 31.5 24.3 87 1.6 W 6 11 3 6 1007.5 1007.4 0.2
06/08:30pm 27.3 32.5 24.2 83 2.1 W 4 9 2 5 1007.1 1007.0 0.2
06/08:00pm 28.0 32.5 24.0 79 2.8 W 7 11 4 6 1006.9 1006.8 0.2
06/07:30pm 28.4 32.8 24.4 79 2.8 WNW 9 13 5 7 1006.8 1006.7 0.2
06/07:00pm 28.9 33.0 24.5 77 3.1 WNW 11 15 6 8 1006.4 1006.3 0.2
06/06:30pm 29.2 33.1 24.3 75 3.4 WNW 11 15 6 8 1006.2 1006.1 0.2
06/06:00pm 29.5 33.1 23.7 71 4.0 W 11 15 6 8 1005.5 1005.4 0.2
06/05:30pm 29.6 33.0 23.3 69 4.3 WNW 11 15 6 8 1005.3 1005.2 0.2
06/05:00pm 29.7 33.0 23.2 68 4.5 WNW 11 15 6 8 1005.2 1005.1 0.2
06/04:30pm 29.9 33.6 23.3 67 4.5 W 9 11 5 6 1005.2 1005.1 0.2
06/04:00pm 29.9 33.9 23.1 67 4.7 W 7 9 4 5 1005.4 1005.3 0.2
06/03:30pm 30.1 34.1 22.8 65 5.0 WNW 6 9 3 5 1005.6 1005.5 0.2
06/03:00pm 30.4 34.7 23.3 66 4.9 WNW 6 9 3 5 1005.7 1005.6 0.2
06/02:30pm 29.8 34.3 22.3 64 5.1 WNW 2 7 1 4 1005.9 1005.8 0.2
06/02:00pm 30.7 34.3 23.1 64 5.2 WNW 9 11 5 6 1006.2 1006.1 0.2
06/01:30pm 30.5 34.8 24.2 69 4.4 W 9 11 5 6 1006.5 1006.4 0.2
06/01:00pm 30.2 34.6 24.4 71 4.0 WNW 9 11 5 6 1006.9 1006.8 0.2
06/12:30pm 30.3 34.7 25.1 73 3.7 WNW 11 13 6 7 1007.3 1007.2 0.2
06/12:00pm 30.5 34.5 25.1 73 3.8 NW 13 19 7 10 1007.9 1007.8 0.2
06/11:30am 29.7 32.7 24.6 74 3.6 W 17 22 9 12 1008.4 1008.3 0.2
06/11:00am 29.6 33.8 24.7 75 3.4 WNW 11 17 6 9 1008.6 1008.5 0.2
06/10:30am 29.5 34.3 24.1 72 3.8 NNW 6 9 3 5 1008.5 1008.4 0.0
06/10:00am 28.0 31.9 24.2 80 2.6 NW 11 17 6 9 1008.4 1008.3 0.0
06/09:30am 28.2 33.2 24.8 82 2.4 SW 7 11 4 6 1008.4 1008.3 0.0
06/09:00am 27.5 33.5 26.1 92 1.0 W 6 13 3 7 1008.1 1008.0 0.8
06/08:30am 26.9 34.1 26.2 96 0.5 CALM 0 0 0 0 1008.2 1008.1 0.8
06/08:00am 26.3 33.3 25.8 97 0.4 CALM 0 0 0 0 1007.6 1007.5 0.8
06/07:30am 25.4 31.7 24.7 96 0.5 CALM 0 0 0 0 1007.2 1007.1 0.8
06/07:00am 24.8 30.5 23.8 94 0.7 CALM 0 0 0 0 1006.9 1006.8 0.8
06/06:30am 24.7 30.3 23.5 93 0.8 CALM 0 0 0 0 1006.4 1006.3 0.8
06/06:00am 24.9 30.1 23.5 92 1.0 WNW 2 6 1 3 1005.9 1005.8 0.8
06/05:30am 25.6 29.9 23.7 89 1.3 WNW 7 11 4 6 1005.8 1005.7 0.8
06/05:00am 26.3 30.6 24.3 89 1.4 WNW 9 13 5 7 1005.7 1005.6 0.8
06/04:30am 26.3 30.7 24.5 90 1.2 NW 9 13 5 7 1005.6 1005.5 0.8
06/04:00am 26.3 31.0 24.9 92 1.0 NW 9 13 5 7 1005.6 1005.5 0.8
06/03:30am 26.2 30.9 25.5 96 0.5 NW 11 15 6 8 1005.8 1005.7 0.8
06/03:00am 26.0 31.1 25.5 97 0.4 NNW 9 13 5 7 1005.9 1005.8 0.8
06/02:30am 25.1 30.0 24.6 97 0.3 NNW 7 13 4 7 1006.1 1006.0 0.8
06/02:00am 25.3 29.9 24.8 97 0.3 NNW 9 11 5 6 1006.4 1006.3 0.8
06/01:30am 24.5 30.3 24.0 97 0.3 CALM 0 0 0 0 1006.6 1006.5 0.8
06/01:00am 24.4 29.4 23.9 97 0.3 ENE 4 7 2 4 1006.8 1006.7 0.8
06/12:30am 24.4 29.4 23.9 97 0.3 E 4 7 2 4 1006.8 1006.7 0.8
06/12:00am 24.6 29.4 24.1 97 0.3 E 6 7 3 4 1007.3 1007.2 0.8
 
Date/Time
CST
Temp
°C
App
Temp
°C
Dew
Point
°C
Rel
Hum
%
Delta-T
°C
Wind Press
QNH
hPa
Press
MSL
hPa
Rain since
9am
mm
Dir  Spd
km/h
Gust
km/h
Spd
kts
Gust
kts
05/11:30pm 24.7 29.3 24.2 97 0.3 ESE 7 9 4 5 1007.5 1007.4 0.8
05/11:00pm 24.7 30.5 24.0 96 0.5 CALM 0 0 0 0 1007.3 1007.2 0.8
05/10:30pm 24.7 30.2 24.0 96 0.5 E 2 6 1 3 1007.1 1007.0 0.8
05/10:00pm 24.9 29.7 24.2 96 0.5 E 6 7 3 4 1007.1 1007.0 0.8
05/09:30pm 24.9 29.4 23.7 93 0.8 ESE 6 6 3 3 1007.0 1006.9 0.8
05/09:00pm 25.0 29.6 23.8 93 0.8 ESE 6 6 3 3 1006.6 1006.5 0.8
05/08:30pm 25.2 29.8 23.8 92 1.0 ESE 6 7 3 4 1006.3 1006.2 0.8
05/08:00pm 25.4 29.9 23.6 90 1.2 E 6 7 3 4 1006.0 1005.9 0.8
05/07:30pm 26.7 32.4 24.4 87 1.6 NNE 2 7 1 4 1005.7 1005.6 0.8
05/07:00pm 28.6 32.1 23.5 74 3.5 NE 11 17 6 9 1005.6 1005.5 0.0
05/06:30pm 30.2 34.6 24.4 71 4.1 N 9 13 5 7 1005.1 1005.0 0.0
05/06:00pm 30.6 35.2 24.7 71 4.1 NW 9 13 5 7 1004.8 1004.7 0.0
05/05:30pm 30.4 34.3 24.3 70 4.3 NNW 11 15 6 8 1004.5 1004.4 0.0
05/05:00pm 30.5 34.6 24.6 70 4.1 NW 11 15 6 8 1004.6 1004.5 0.0
05/04:30pm 30.8 35.1 24.9 71 4.2 W 11 15 6 8 1004.7 1004.6 0.0
05/04:00pm 30.1 34.2 24.5 72 3.9 WSW 11 19 6 10 1004.7 1004.6 0.0
05/03:30pm 30.8 34.2 24.0 67 4.7 SW 13 20 7 11 1004.9 1004.8 0.0
05/03:00pm 31.0 33.9 23.9 66 4.9 SW 15 20 8 11 1004.8 1004.7 0.0
05/02:30pm 31.4 35.7 25.5 71 4.2 SW 13 20 7 11 1004.8 1004.7 0.0
05/02:00pm 30.6 34.0 24.0 68 4.6 SW 13 20 7 11 1005.1 1005.0 0.0
05/01:30pm 30.7 34.0 23.9 67 4.7 SW 13 19 7 10 1005.3 1005.2 0.0
05/01:00pm 30.0 33.9 24.2 71 4.0 SW 11 17 6 9 1005.6 1005.5 0.0
05/12:30pm 30.2 33.9 23.9 69 4.4 SSW 11 17 6 9 1006.0 1005.9 0.0
05/12:00pm 30.0 34.3 24.2 71 4.0 SSW 9 15 5 8 1006.3 1006.2 0.0
05/11:30am 29.3 33.1 24.0 73 3.7 SSW 11 17 6 9 1006.5 1006.4 0.0
05/11:00am 29.5 33.9 24.4 74 3.6 SW 9 15 5 8 1006.6 1006.5 0.0
05/10:30am 29.4 33.3 24.3 74 3.6 SW 11 15 6 8 1006.6 1006.5 0.0
05/10:00am 29.2 33.8 24.1 74 3.5 WSW 7 11 4 6 1006.7 1006.6 0.0
05/09:30am 29.4 34.7 25.2 78 3.0 WNW 7 9 4 5 1006.7 1006.6 0.0
05/09:00am 28.3 33.4 24.9 82 2.4 WNW 7 9 4 5 1006.4 1006.3 0.0
05/08:30am 26.9 33.7 25.5 92 1.0 CALM 0 0 0 0 1006.4 1006.3 0.0
05/08:00am 25.9 32.6 25.4 97 0.3 CALM 0 0 0 0 1006.3 1006.2 0.0
05/07:30am 24.9 31.0 24.4 97 0.3 CALM 0 0 0 0 1006.1 1006.0 0.0
05/07:00am 24.2 28.6 23.5 96 0.5 E 6 6 3 3 1006.0 1005.9 0.0
05/06:30am 24.3 28.6 23.6 96 0.5 ENE 7 9 4 5 1005.8 1005.7 0.0
05/06:00am 24.2 28.6 23.5 96 0.5 E 6 7 3 4 1005.4 1005.3 0.0
05/05:30am 24.1 28.3 23.1 94 0.7 E 6 7 3 4 1005.1 1005.0 0.0
05/05:00am 24.3 28.5 23.1 93 0.8 E 6 7 3 4 1004.8 1004.7 0.0
05/04:30am 24.5 29.4 23.1 92 0.9 ENE 2 6 1 3 1004.7 1004.6 0.0
05/04:00am 25.1 30.4 23.7 92 1.0 NE 2 6 1 3 1004.7 1004.6 0.0
05/03:30am 25.5 31.3 23.9 91 1.1 CALM 0 0 0 0 1004.6 1004.5 0.0
05/03:00am 25.7 31.5 23.9 90 1.2 CALM 0 0 0 0 1004.7 1004.6 0.0
05/02:30am 25.7 30.4 23.9 90 1.2 E 6 9 3 5 1004.7 1004.6 0.0
05/02:00am 26.1 31.6 24.0 88 1.4 ENE 2 6 1 3 1004.9 1004.8 0.0
05/01:30am 26.2 30.7 23.9 87 1.6 E 7 9 4 5 1005.3 1005.2 0.0
05/01:00am 26.3 31.0 24.0 87 1.6 ESE 6 7 3 4 1005.8 1005.7 0.0
05/12:30am 26.4 30.9 23.9 86 1.7 ESE 7 11 4 6 1006.1 1006.0 0.0
05/12:00am 26.4 30.9 23.9 86 1.7 E 7 11 4 6 1006.3 1006.2 0.0
 
Date/Time
CST
Temp
°C
App
Temp
°C
Dew
Point
°C
Rel
Hum
%
Delta-T
°C
Wind Press
QNH
hPa
Press
MSL
hPa
Rain since
9am
mm
Dir  Spd
km/h
Gust
km/h
Spd
kts
Gust
kts
04/11:30pm 26.1 30.6 24.0 88 1.4 ESE 7 11 4 6 1006.4 1006.3 0.0
04/11:00pm 25.5 29.8 23.6 89 1.3 SSW 7 15 4 8 1006.5 1006.4 0.0
04/10:30pm 25.6 29.9 23.7 89 1.3 SW 7 9 4 5 1006.5 1006.4 0.0
04/10:00pm 25.6 30.2 23.8 90 1.2 SW 6 9 3 5 1006.6 1006.5 0.0
04/09:30pm 26.0 32.0 24.2 90 1.2 CALM 0 0 0 0 1006.5 1006.4 0.0
04/09:00pm 26.1 31.9 24.0 88 1.4 CALM 0 0 0 0 1006.1 1006.0 0.0
04/08:30pm 26.5 31.4 24.3 88 1.5 SW 6 7 3 4 1005.7 1005.6 0.0
04/08:00pm 26.9 33.0 24.4 86 1.7 CALM 0 0 0 0 1005.3 1005.2 0.0
04/07:30pm 27.7 33.7 24.3 82 2.4 CALM 0 0 0 0 1004.8 1004.7 0.0
04/07:00pm 28.4 34.1 23.8 76 3.2 CALM 0 0 0 0 1004.4 1004.3 0.0
04/06:30pm 28.4 32.3 22.9 72 3.8 WSW 7 11 4 6 1003.7 1003.6 0.0
04/06:00pm 28.8 32.6 23.5 73 3.7 WSW 9 15 5 8 1003.2 1003.1 0.0
04/05:30pm 29.2 32.3 23.6 72 3.9 WSW 13 19 7 10 1003.4 1003.3 0.0
04/05:00pm 29.6 32.9 23.8 71 4.0 WSW 13 19 7 10 1003.2 1003.1 0.0
04/04:30pm 30.4 33.5 22.8 64 5.2 WSW 11 17 6 9 1002.8 1002.7 0.0
04/04:00pm 30.9 34.4 23.5 64 5.1 SW 11 17 6 9 1002.9 1002.8 0.0
04/03:30pm 31.1 33.8 22.1 58 6.1 SSW 11 17 6 9 1003.3 1003.2 0.0
04/03:00pm 29.6 32.3 22.1 64 5.1 SSW 11 17 6 9 1003.8 1003.7 0.0
04/02:30pm 29.5 32.8 22.5 66 4.8 W 9 13 5 7 1004.0 1003.9 0.0
04/02:00pm 29.7 33.6 22.9 67 4.6 W 7 11 4 6 1004.2 1004.1 0.0
04/01:30pm 29.0 32.3 22.5 68 4.4 W 9 13 5 7 1005.0 1004.9 0.0
04/01:00pm 28.1 32.1 22.8 73 3.6 S 6 9 3 5 1005.3 1005.2 0.0
04/12:30pm 28.4 32.0 23.8 76 3.2 SW 11 20 6 11 1005.9 1005.8 0.0
04/12:00pm 27.1 28.8 23.1 79 2.7 SSW 19 28 10 15 1006.3 1006.2 0.0
04/11:30am 26.4 28.7 23.5 84 2.0 SSW 17 28 9 15 1006.6 1006.5 0.0
04/11:00am 27.0 29.8 23.0 79 2.7 SSW 13 22 7 12 1006.7 1006.6 0.0
04/10:30am 28.6 32.2 23.1 72 3.8 W 9 13 5 7 1006.6 1006.5 0.0
04/10:00am 28.7 32.5 22.7 70 4.1 NW 7 9 4 5 1006.7 1006.6 0.0
04/09:30am 27.8 32.5 22.7 74 3.5 E 2 7 1 4 1006.5 1006.4 0.0
04/09:00am 26.8 31.3 23.7 83 2.1 ESE 6 9 3 5 1006.2 1006.1 0.2
04/08:30am 25.8 29.4 23.1 85 1.8 ESE 9 13 5 7 1006.1 1006.0 0.2
04/08:00am 24.6 27.8 22.3 87 1.5 ESE 9 13 5 7 1006.0 1005.9 0.2
04/07:30am 23.6 26.4 21.5 88 1.4 ESE 9 15 5 8 1006.2 1006.1 0.2
04/07:00am 22.5 24.3 20.4 88 1.4 ESE 11 17 6 9 1005.7 1005.6 0.2
04/06:30am 22.2 23.6 20.3 89 1.2 ESE 13 19 7 10 1005.4 1005.3 0.2
04/06:00am 22.1 23.3 20.7 92 0.9 E 15 20 8 11 1005.2 1005.1 0.2
04/05:30am 22.6 25.2 21.2 92 0.9 E 9 13 5 7 1005.2 1005.1 0.2
04/05:00am 22.5 25.4 21.0 91 1.0 ENE 7 11 4 6 1005.0 1004.9 0.2
04/04:30am 22.7 23.9 20.6 88 1.4 E 15 20 8 11 1005.3 1005.2 0.0
04/04:00am 27.4 29.3 23.4 79 2.7 NW 19 30 10 16 1005.4 1005.3 0.0
04/03:30am 27.8 28.6 25.0 85 2.0 NW 30 39 16 21 1004.7 1004.6 0.0
04/03:00am 27.7 26.6 24.7 84 2.1 NW 39 52 21 28 1004.6 1004.5 0.0
04/02:30am 27.7 26.7 24.9 85 2.0 NW 39 52 21 28 1004.3 1004.2 0.0
04/02:22am 27.8 26.6 24.6 83 2.2 WNW 39 52 21 28 1004.4 1004.3 0.0
04/02:00am 28.9 29.1 25.1 80 2.7 WNW 33 41 18 22 1004.5 1004.4 0.0
04/01:30am 27.9 31.8 26.1 90 1.3 WNW 17 26 9 14 1005.1 1005.0 0.0
04/01:00am 25.7 30.2 23.6 88 1.4 E 6 9 3 5 1005.4 1005.3 0.0
04/12:30am 25.7 29.6 23.6 88 1.4 NE 9 15 5 8 1005.8 1005.7 0.0
04/12:00am 25.8 28.6 23.7 88 1.4 ENE 15 22 8 12 1005.9 1005.8 0.0
 
Date/Time
CST
Temp
°C
App
Temp
°C
Dew
Point
°C
Rel
Hum
%
Delta-T
°C
Wind Press
QNH
hPa
Press
MSL
hPa
Rain since
9am
mm
Dir  Spd
km/h
Gust
km/h
Spd
kts
Gust
kts
03/11:30pm 26.0 30.1 23.9 88 1.4 E 9 15 5 8 1006.4 1006.3 0.0
03/11:00pm 26.3 29.7 23.4 84 2.0 S 11 19 6 10 1006.5 1006.4 0.0
03/10:30pm 26.9 29.8 22.5 77 3.0 E 11 17 6 9 1006.1 1006.0 0.0
03/10:00pm 27.9 30.2 23.5 77 3.0 NW 17 26 9 14 1005.9 1005.8 0.0

Other formats

Comma delimited format used in spreadsheet applications
http://www.bom.gov.au/fwo/IDD60801/IDD60801.94122.axf

JavaScript Object Notation format (JSON) in row-major order
http://www.bom.gov.au/fwo/IDD60801/IDD60801.94122.json

Data quality

Most of these data are generated automatically and are frequently updated. Quality checks on data are not normally performed. It is possible for incorrect values to appear. Refer to information at About Latest Weather Observations and please check the disclaimer before using these data.